sensor_id;sensor_type;location;lat;lon;timestamp;pressure;altitude;pressure_sealevel;temperature;humidity
60055;BME280;45930;53.514;55.904;2023-06-14T00:00:23;49183.47;;;-149.77;45.40
60055;BME280;45930;53.514;55.904;2023-06-14T00:01:24;49169.59;;;-149.77;45.23
60055;BME280;45930;53.514;55.904;2023-06-14T00:02:25;49179.50;;;-149.77;45.21
60055;BME280;45930;53.514;55.904;2023-06-14T00:03:26;49177.53;;;-149.77;45.08
60055;BME280;45930;53.514;55.904;2023-06-14T00:04:27;49141.88;;;-149.77;45.33
60055;BME280;45930;53.514;55.904;2023-06-14T00:05:28;49165.63;;;-149.77;45.39
60055;BME280;45930;53.514;55.904;2023-06-14T00:06:30;49181.50;;;-149.77;45.41
60055;BME280;45930;53.514;55.904;2023-06-14T00:07:41;49167.63;;;-149.77;45.27
60055;BME280;45930;53.514;55.904;2023-06-14T00:08:45;49157.72;;;-149.77;45.13
60055;BME280;45930;53.514;55.904;2023-06-14T00:09:46;49165.63;;;-149.77;45.16
60055;BME280;45930;53.514;55.904;2023-06-14T00:10:47;49163.66;;;-149.77;45.23
60055;BME280;45930;53.514;55.904;2023-06-14T00:11:48;49183.47;;;-149.77;45.48
60055;BME280;45930;53.514;55.904;2023-06-14T00:12:48;49187.44;;;-149.77;45.55
60055;BME280;45930;53.514;55.904;2023-06-14T00:13:49;49161.69;;;-149.77;45.59
60055;BME280;45930;53.514;55.904;2023-06-14T00:14:50;49159.69;;;-149.77;45.69
60055;BME280;45930;53.514;55.904;2023-06-14T00:15:51;49179.50;;;-149.77;45.36
60055;BME280;45930;53.514;55.904;2023-06-14T00:16:55;49163.66;;;-149.77;45.51
60055;BME280;45930;53.514;55.904;2023-06-14T00:17:59;49177.53;;;-149.77;45.44
60055;BME280;45930;53.514;55.904;2023-06-14T00:19:02;49153.75;;;-149.77;45.39
60055;BME280;45930;53.514;55.904;2023-06-14T00:20:06;49179.50;;;-149.77;45.23
60055;BME280;45930;53.514;55.904;2023-06-14T00:21:07;49191.38;;;-149.77;45.19
60055;BME280;45930;53.514;55.904;2023-06-14T00:22:08;49161.69;;;-149.77;45.29
60055;BME280;45930;53.514;55.904;2023-06-14T00:23:08;49167.63;;;-149.77;44.88
60055;BME280;45930;53.514;55.904;2023-06-14T00:24:09;49169.59;;;-149.77;44.83
60055;BME280;45930;53.514;55.904;2023-06-14T00:25:10;49161.69;;;-149.77;44.72
60055;BME280;45930;53.514;55.904;2023-06-14T00:26:11;49181.50;;;-149.77;44.81
60055;BME280;45930;53.514;55.904;2023-06-14T00:27:11;49167.63;;;-149.77;45.00
60055;BME280;45930;53.514;55.904;2023-06-14T00:28:13;49143.84;;;-149.77;45.33
60055;BME280;45930;53.514;55.904;2023-06-14T00:29:14;49165.63;;;-149.77;45.42
60055;BME280;45930;53.514;55.904;2023-06-14T00:30:14;49153.75;;;-149.77;45.82
60055;BME280;45930;53.514;55.904;2023-06-14T00:31:15;49187.44;;;-149.77;46.16
60055;BME280;45930;53.514;55.904;2023-06-14T00:33:17;49195.34;;;-149.77;45.55
60055;BME280;45930;53.514;55.904;2023-06-14T00:34:18;49195.34;;;-149.77;45.78
60055;BME280;45930;53.514;55.904;2023-06-14T00:35:19;49167.63;;;-149.77;45.71
60055;BME280;45930;53.514;55.904;2023-06-14T00:36:19;49153.75;;;-149.77;45.66
60055;BME280;45930;53.514;55.904;2023-06-14T00:37:20;49181.50;;;-149.77;45.38
60055;BME280;45930;53.514;55.904;2023-06-14T00:38:21;49167.63;;;-149.77;45.13
60055;BME280;45930;53.514;55.904;2023-06-14T00:39:22;49167.63;;;-149.77;45.29
60055;BME280;45930;53.514;55.904;2023-06-14T00:40:22;49181.50;;;-149.77;44.85
60055;BME280;45930;53.514;55.904;2023-06-14T00:41:23;49175.53;;;-149.77;45.16
60055;BME280;45930;53.514;55.904;2023-06-14T00:42:28;49179.50;;;-149.77;45.16
60055;BME280;45930;53.514;55.904;2023-06-14T00:43:29;49149.78;;;-149.77;44.74
60055;BME280;45930;53.514;55.904;2023-06-14T00:44:30;49187.44;;;-149.77;44.35
60055;BME280;45930;53.514;55.904;2023-06-14T00:45:30;49199.31;;;-149.77;44.18
60055;BME280;45930;53.514;55.904;2023-06-14T00:46:32;49153.75;;;-149.77;44.45
60055;BME280;45930;53.514;55.904;2023-06-14T00:47:33;49139.91;;;-149.77;44.31
60055;BME280;45930;53.514;55.904;2023-06-14T00:48:35;49183.47;;;-149.77;44.19
60055;BME280;45930;53.514;55.904;2023-06-14T00:49:36;49201.28;;;-149.77;44.00
60055;BME280;45930;53.514;55.904;2023-06-14T00:50:37;49179.50;;;-149.77;44.08
60055;BME280;45930;53.514;55.904;2023-06-14T00:51:38;49165.63;;;-149.77;44.05
60055;BME280;45930;53.514;55.904;2023-06-14T00:52:40;49155.75;;;-149.77;43.96
60055;BME280;45930;53.514;55.904;2023-06-14T00:53:40;49159.69;;;-149.77;44.16
60055;BME280;45930;53.514;55.904;2023-06-14T00:54:46;49161.69;;;-149.77;44.58
60055;BME280;45930;53.514;55.904;2023-06-14T00:55:47;49159.69;;;-149.77;44.57
60055;BME280;45930;53.514;55.904;2023-06-14T00:56:48;49187.44;;;-149.77;44.44
60055;BME280;45930;53.514;55.904;2023-06-14T00:57:48;49191.38;;;-149.77;44.58
60055;BME280;45930;53.514;55.904;2023-06-14T00:58:50;49191.38;;;-149.77;44.83
60055;BME280;45930;53.514;55.904;2023-06-14T00:59:51;49191.38;;;-149.77;44.65
60055;BME280;45930;53.514;55.904;2023-06-14T01:00:53;49173.56;;;-149.77;44.11
60055;BME280;45930;53.514;55.904;2023-06-14T01:01:54;49167.63;;;-149.77;43.96
60055;BME280;45930;53.514;55.904;2023-06-14T01:02:55;49191.38;;;-149.77;44.18
60055;BME280;45930;53.514;55.904;2023-06-14T01:03:57;49157.72;;;-149.77;44.16
60055;BME280;45930;53.514;55.904;2023-06-14T01:04:58;49179.50;;;-149.77;44.18
60055;BME280;45930;53.514;55.904;2023-06-14T01:06:21;49183.47;;;-149.77;43.94
60055;BME280;45930;53.514;55.904;2023-06-14T01:08:51;49189.41;;;-149.77;44.00
60055;BME280;45930;53.514;55.904;2023-06-14T01:11:22;49191.38;;;-149.77;44.22
60055;BME280;45930;53.514;55.904;2023-06-14T01:12:34;49187.44;;;-149.77;43.98
60055;BME280;45930;53.514;55.904;2023-06-14T01:13:43;49167.63;;;-149.77;43.98
60055;BME280;45930;53.514;55.904;2023-06-14T01:14:47;49175.53;;;-149.77;43.76
60055;BME280;45930;53.514;55.904;2023-06-14T01:15:49;49183.47;;;-149.77;43.92
60055;BME280;45930;53.514;55.904;2023-06-14T01:16:51;49193.38;;;-149.77;43.72
60055;BME280;45930;53.514;55.904;2023-06-14T01:17:53;49175.53;;;-149.77;43.90
60055;BME280;45930;53.514;55.904;2023-06-14T01:18:54;49195.34;;;-149.77;43.62
60055;BME280;45930;53.514;55.904;2023-06-14T01:19:58;49171.59;;;-149.77;43.76
60055;BME280;45930;53.514;55.904;2023-06-14T01:21:00;49219.13;;;-149.77;43.73
60055;BME280;45930;53.514;55.904;2023-06-14T01:22:06;49159.69;;;-149.77;43.75
60055;BME280;45930;53.514;55.904;2023-06-14T01:23:06;49199.31;;;-149.77;43.38
60055;BME280;45930;53.514;55.904;2023-06-14T01:24:09;49181.50;;;-149.77;42.02
60055;BME280;45930;53.514;55.904;2023-06-14T01:25:11;49213.19;;;-149.77;41.90
60055;BME280;45930;53.514;55.904;2023-06-14T01:26:12;49197.34;;;-149.77;41.42
60055;BME280;45930;53.514;55.904;2023-06-14T01:27:16;49187.44;;;-149.77;41.37
60055;BME280;45930;53.514;55.904;2023-06-14T01:28:18;49217.13;;;-149.77;41.38
60055;BME280;45930;53.514;55.904;2023-06-14T01:29:22;49181.50;;;-149.77;41.49
60055;BME280;45930;53.514;55.904;2023-06-14T01:30:24;49195.34;;;-149.77;40.86
60055;BME280;45930;53.514;55.904;2023-06-14T01:31:29;49207.25;;;-149.77;40.58
60055;BME280;45930;53.514;55.904;2023-06-14T01:32:30;49197.34;;;-149.77;40.58
60055;BME280;45930;53.514;55.904;2023-06-14T01:33:32;49223.09;;;-149.77;40.77
60055;BME280;45930;53.514;55.904;2023-06-14T01:34:33;49217.13;;;-149.77;40.79
60055;BME280;45930;53.514;55.904;2023-06-14T01:35:34;49199.31;;;-149.77;40.61
60055;BME280;45930;53.514;55.904;2023-06-14T01:36:36;49203.28;;;-149.77;40.52
60055;BME280;45930;53.514;55.904;2023-06-14T01:37:41;49217.13;;;-149.77;41.05
60055;BME280;45930;53.514;55.904;2023-06-14T01:38:44;49199.31;;;-149.77;40.92
60055;BME280;45930;53.514;55.904;2023-06-14T01:39:45;49173.56;;;-149.77;40.86
60055;BME280;45930;53.514;55.904;2023-06-14T01:40:48;49219.13;;;-149.77;41.08
60055;BME280;45930;53.514;55.904;2023-06-14T01:41:51;49217.13;;;-149.77;40.92
60055;BME280;45930;53.514;55.904;2023-06-14T01:42:52;49223.09;;;-149.77;40.90
60055;BME280;45930;53.514;55.904;2023-06-14T01:43:54;49195.34;;;-149.77;39.30
60055;BME280;45930;53.514;55.904;2023-06-14T01:44:56;49238.94;;;-149.77;39.76
60055;BME280;45930;53.514;55.904;2023-06-14T01:45:58;49209.22;;;-149.77;39.86
60055;BME280;45930;53.514;55.904;2023-06-14T01:47:00;49221.09;;;-149.77;39.59
60055;BME280;45930;53.514;55.904;2023-06-14T01:48:01;49191.38;;;-149.77;39.78
60055;BME280;45930;53.514;55.904;2023-06-14T01:49:02;49229.03;;;-149.77;39.52
60055;BME280;45930;53.514;55.904;2023-06-14T01:50:03;49221.09;;;-149.77;39.55
60055;BME280;45930;53.514;55.904;2023-06-14T01:51:04;49201.28;;;-149.77;39.63
60055;BME280;45930;53.514;55.904;2023-06-14T01:52:05;49231.00;;;-149.77;39.66
60055;BME280;45930;53.514;55.904;2023-06-14T01:53:08;49221.09;;;-149.77;39.75
60055;BME280;45930;53.514;55.904;2023-06-14T01:54:09;49211.19;;;-149.77;39.68
60055;BME280;45930;53.514;55.904;2023-06-14T01:55:10;49246.84;;;-149.77;39.88
60055;BME280;45930;53.514;55.904;2023-06-14T01:56:11;49234.97;;;-149.77;39.83
60055;BME280;45930;53.514;55.904;2023-06-14T01:57:12;49250.81;;;-149.77;39.36
60055;BME280;45930;53.514;55.904;2023-06-14T01:58:13;49209.22;;;-149.77;39.55
60055;BME280;45930;53.514;55.904;2023-06-14T01:59:13;49234.97;;;-149.77;39.60
60055;BME280;45930;53.514;55.904;2023-06-14T02:00:15;49234.97;;;-149.77;39.75
60055;BME280;45930;53.514;55.904;2023-06-14T02:01:16;49233.00;;;-149.77;39.92
60055;BME280;45930;53.514;55.904;2023-06-14T02:02:17;49203.28;;;-149.77;39.43
60055;BME280;45930;53.514;55.904;2023-06-14T02:03:18;49213.19;;;-149.77;39.08
60055;BME280;45930;53.514;55.904;2023-06-14T02:04:19;49238.94;;;-149.77;39.01
60055;BME280;45930;53.514;55.904;2023-06-14T02:05:20;49219.13;;;-149.77;39.28
60055;BME280;45930;53.514;55.904;2023-06-14T02:06:21;49201.28;;;-149.77;39.44
60055;BME280;45930;53.514;55.904;2023-06-14T02:07:23;49250.81;;;-149.77;38.65
60055;BME280;45930;53.514;55.904;2023-06-14T02:08:23;49225.06;;;-149.77;38.31
60055;BME280;45930;53.514;55.904;2023-06-14T02:09:24;49236.94;;;-149.77;38.45
60055;BME280;45930;53.514;55.904;2023-06-14T02:10:25;49252.78;;;-149.77;38.70
60055;BME280;45930;53.514;55.904;2023-06-14T02:11:26;49215.16;;;-149.77;38.81
60055;BME280;45930;53.514;55.904;2023-06-14T02:12:27;49203.28;;;-149.77;38.83
60055;BME280;45930;53.514;55.904;2023-06-14T02:13:28;49234.97;;;-149.77;39.03
60055;BME280;45930;53.514;55.904;2023-06-14T02:14:29;49231.00;;;-149.77;38.94
60055;BME280;45930;53.514;55.904;2023-06-14T02:15:30;49240.91;;;-149.77;38.88
60055;BME280;45930;53.514;55.904;2023-06-14T02:16:33;49217.13;;;-149.77;38.24
60055;BME280;45930;53.514;55.904;2023-06-14T02:17:36;49227.03;;;-149.77;38.29
60055;BME280;45930;53.514;55.904;2023-06-14T02:18:37;49215.16;;;-149.77;38.44
60055;BME280;45930;53.514;55.904;2023-06-14T02:19:57;49250.81;;;-149.77;38.67
60055;BME280;45930;53.514;55.904;2023-06-14T02:20:58;49231.00;;;-149.77;38.26
60055;BME280;45930;53.514;55.904;2023-06-14T02:21:59;49244.88;;;-149.77;37.55
60055;BME280;45930;53.514;55.904;2023-06-14T02:23:00;49234.97;;;-149.77;37.76
60055;BME280;45930;53.514;55.904;2023-06-14T02:24:01;49223.09;;;-149.77;37.91
60055;BME280;45930;53.514;55.904;2023-06-14T02:25:02;49207.25;;;-149.77;37.83
60055;BME280;45930;53.514;55.904;2023-06-14T02:26:03;49231.00;;;-149.77;38.26
60055;BME280;45930;53.514;55.904;2023-06-14T02:27:04;49240.91;;;-149.77;38.24
60055;BME280;45930;53.514;55.904;2023-06-14T02:28:05;49246.84;;;-149.77;38.38
60055;BME280;45930;53.514;55.904;2023-06-14T02:29:06;49246.84;;;-149.77;38.36
60055;BME280;45930;53.514;55.904;2023-06-14T02:30:09;49238.94;;;-149.77;38.00
60055;BME280;45930;53.514;55.904;2023-06-14T02:31:10;49236.94;;;-149.77;38.20
60055;BME280;45930;53.514;55.904;2023-06-14T02:32:11;49227.03;;;-149.77;37.85
60055;BME280;45930;53.514;55.904;2023-06-14T02:33:12;49219.13;;;-149.77;37.33
60055;BME280;45930;53.514;55.904;2023-06-14T02:34:13;49229.03;;;-149.77;37.86
60055;BME280;45930;53.514;55.904;2023-06-14T02:35:17;49225.06;;;-149.77;37.97
60055;BME280;45930;53.514;55.904;2023-06-14T02:36:18;49250.81;;;-149.77;37.66
60055;BME280;45930;53.514;55.904;2023-06-14T02:37:19;49250.81;;;-149.77;38.03
60055;BME280;45930;53.514;55.904;2023-06-14T02:38:20;49266.66;;;-149.77;38.04
60055;BME280;45930;53.514;55.904;2023-06-14T02:39:21;49234.97;;;-149.77;38.37
60055;BME280;45930;53.514;55.904;2023-06-14T02:40:23;49242.91;;;-149.77;38.27
60055;BME280;45930;53.514;55.904;2023-06-14T02:41:24;49252.78;;;-149.77;38.30
60055;BME280;45930;53.514;55.904;2023-06-14T02:42:26;49256.75;;;-149.77;37.74
60055;BME280;45930;53.514;55.904;2023-06-14T02:43:29;49233.00;;;-149.77;37.81
60055;BME280;45930;53.514;55.904;2023-06-14T02:44:30;49246.84;;;-149.77;37.69
60055;BME280;45930;53.514;55.904;2023-06-14T02:45:31;49252.78;;;-149.77;37.79
60055;BME280;45930;53.514;55.904;2023-06-14T02:46:32;49256.75;;;-149.77;37.85
60055;BME280;45930;53.514;55.904;2023-06-14T02:47:33;49246.84;;;-149.77;38.07
60055;BME280;45930;53.514;55.904;2023-06-14T02:48:33;49248.84;;;-149.77;37.93
60055;BME280;45930;53.514;55.904;2023-06-14T02:49:34;49276.56;;;-149.77;38.12
60055;BME280;45930;53.514;55.904;2023-06-14T02:50:35;49254.78;;;-149.77;38.15
60055;BME280;45930;53.514;55.904;2023-06-14T02:51:36;49272.59;;;-149.77;37.94
60055;BME280;45930;53.514;55.904;2023-06-14T02:52:37;49260.72;;;-149.77;38.04
60055;BME280;45930;53.514;55.904;2023-06-14T02:53:38;49258.75;;;-149.77;37.96
60055;BME280;45930;53.514;55.904;2023-06-14T02:54:39;49264.69;;;-149.77;36.71
60055;BME280;45930;53.514;55.904;2023-06-14T02:55:40;49248.84;;;-149.77;36.52
60055;BME280;45930;53.514;55.904;2023-06-14T02:56:41;49268.63;;;-149.77;36.70
60055;BME280;45930;53.514;55.904;2023-06-14T02:57:42;49264.69;;;-149.77;36.01
60055;BME280;45930;53.514;55.904;2023-06-14T02:58:43;49292.41;;;-149.77;35.82
60055;BME280;45930;53.514;55.904;2023-06-14T02:59:44;49288.44;;;-149.77;35.41
60055;BME280;45930;53.514;55.904;2023-06-14T03:00:44;49262.69;;;-149.77;35.04
60055;BME280;45930;53.514;55.904;2023-06-14T03:01:45;49260.72;;;-149.77;35.12
60055;BME280;45930;53.514;55.904;2023-06-14T03:02:46;49278.53;;;-149.77;34.47
60055;BME280;45930;53.514;55.904;2023-06-14T03:03:47;49270.63;;;-149.77;34.63
60055;BME280;45930;53.514;55.904;2023-06-14T03:04:48;49240.91;;;-149.77;34.52
60055;BME280;45930;53.514;55.904;2023-06-14T03:05:49;49278.53;;;-149.77;33.87
60055;BME280;45930;53.514;55.904;2023-06-14T03:06:50;49270.63;;;-149.77;34.17
60055;BME280;45930;53.514;55.904;2023-06-14T03:07:51;49296.38;;;-149.77;34.40
60055;BME280;45930;53.514;55.904;2023-06-14T03:08:51;49266.66;;;-149.77;34.09
60055;BME280;45930;53.514;55.904;2023-06-14T03:09:55;49282.50;;;-149.77;34.35
60055;BME280;45930;53.514;55.904;2023-06-14T03:10:56;49270.63;;;-149.77;34.59
60055;BME280;45930;53.514;55.904;2023-06-14T03:11:57;49254.78;;;-149.77;34.45
60055;BME280;45930;53.514;55.904;2023-06-14T03:12:57;49274.59;;;-149.77;34.57
60055;BME280;45930;53.514;55.904;2023-06-14T03:14:00;49294.41;;;-149.77;34.35
60055;BME280;45930;53.514;55.904;2023-06-14T03:15:01;49270.63;;;-149.77;33.97
60055;BME280;45930;53.514;55.904;2023-06-14T03:16:02;49264.69;;;-149.77;34.13
60055;BME280;45930;53.514;55.904;2023-06-14T03:17:03;49306.28;;;-149.77;34.33
60055;BME280;45930;53.514;55.904;2023-06-14T03:18:05;49272.59;;;-149.77;34.16
60055;BME280;45930;53.514;55.904;2023-06-14T03:19:06;49298.34;;;-149.77;33.91
60055;BME280;45930;53.514;55.904;2023-06-14T03:20:07;49300.34;;;-149.77;33.92
60055;BME280;45930;53.514;55.904;2023-06-14T03:21:09;49310.25;;;-149.77;33.95
60055;BME280;45930;53.514;55.904;2023-06-14T03:22:11;49282.50;;;-149.77;33.89
60055;BME280;45930;53.514;55.904;2023-06-14T03:23:12;49254.78;;;-149.77;33.88
60055;BME280;45930;53.514;55.904;2023-06-14T03:24:13;49322.13;;;-149.77;33.89
60055;BME280;45930;53.514;55.904;2023-06-14T03:25:14;49288.44;;;-149.77;34.00
60055;BME280;45930;53.514;55.904;2023-06-14T03:26:15;49292.41;;;-149.77;33.56
60055;BME280;45930;53.514;55.904;2023-06-14T03:27:18;49274.59;;;-149.77;33.68
60055;BME280;45930;53.514;55.904;2023-06-14T03:28:19;49294.41;;;-149.77;33.92
60055;BME280;45930;53.514;55.904;2023-06-14T03:29:20;49278.53;;;-149.77;33.69
60055;BME280;45930;53.514;55.904;2023-06-14T03:30:21;49288.44;;;-149.77;33.60
60055;BME280;45930;53.514;55.904;2023-06-14T03:31:22;49274.59;;;-149.77;33.18
60055;BME280;45930;53.514;55.904;2023-06-14T03:32:24;49308.25;;;-149.77;33.02
60055;BME280;45930;53.514;55.904;2023-06-14T03:33:25;49274.59;;;-149.77;33.09
60055;BME280;45930;53.514;55.904;2023-06-14T03:34:26;49298.34;;;-149.77;33.25
60055;BME280;45930;53.514;55.904;2023-06-14T03:35:28;49302.31;;;-149.77;33.69
60055;BME280;45930;53.514;55.904;2023-06-14T03:36:29;49294.41;;;-149.77;33.28
60055;BME280;45930;53.514;55.904;2023-06-14T03:37:29;49332.03;;;-149.77;33.46
60055;BME280;45930;53.514;55.904;2023-06-14T03:38:30;49294.41;;;-149.77;33.89
60055;BME280;45930;53.514;55.904;2023-06-14T03:39:31;49308.25;;;-149.77;33.92
60055;BME280;45930;53.514;55.904;2023-06-14T03:40:32;49306.28;;;-149.77;33.68
60055;BME280;45930;53.514;55.904;2023-06-14T03:41:33;49308.25;;;-149.77;33.96
60055;BME280;45930;53.514;55.904;2023-06-14T03:42:33;49302.31;;;-149.77;33.81
60055;BME280;45930;53.514;55.904;2023-06-14T03:43:34;49326.09;;;-149.77;33.23
60055;BME280;45930;53.514;55.904;2023-06-14T03:44:35;49292.41;;;-149.77;32.98
60055;BME280;45930;53.514;55.904;2023-06-14T03:45:38;49278.53;;;-149.77;33.23
60055;BME280;45930;53.514;55.904;2023-06-14T03:46:39;49314.19;;;-149.77;33.23
60055;BME280;45930;53.514;55.904;2023-06-14T03:47:40;49310.25;;;-149.77;32.93
60055;BME280;45930;53.514;55.904;2023-06-14T03:48:41;49300.34;;;-149.77;33.16
60055;BME280;45930;53.514;55.904;2023-06-14T03:49:41;49332.03;;;-149.77;33.23
60055;BME280;45930;53.514;55.904;2023-06-14T03:50:42;49302.31;;;-149.77;32.95
60055;BME280;45930;53.514;55.904;2023-06-14T03:51:45;49326.09;;;-149.77;33.01
60055;BME280;45930;53.514;55.904;2023-06-14T03:52:51;49302.31;;;-149.77;32.93
60055;BME280;45930;53.514;55.904;2023-06-14T03:53:52;49314.19;;;-149.77;33.11
60055;BME280;45930;53.514;55.904;2023-06-14T03:54:54;49290.44;;;-149.77;33.22
60055;BME280;45930;53.514;55.904;2023-06-14T03:55:56;49316.19;;;-149.77;32.87
60055;BME280;45930;53.514;55.904;2023-06-14T03:56:57;49334.00;;;-149.77;32.94
60055;BME280;45930;53.514;55.904;2023-06-14T03:57:58;49336.00;;;-149.77;33.18
60055;BME280;45930;53.514;55.904;2023-06-14T03:58:59;49302.31;;;-149.77;33.02
60055;BME280;45930;53.514;55.904;2023-06-14T04:00:00;49306.28;;;-149.77;32.87
60055;BME280;45930;53.514;55.904;2023-06-14T04:01:01;49318.16;;;-149.77;32.91
60055;BME280;45930;53.514;55.904;2023-06-14T04:02:02;49326.09;;;-149.77;32.77
60055;BME280;45930;53.514;55.904;2023-06-14T04:03:03;49336.00;;;-149.77;32.98
60055;BME280;45930;53.514;55.904;2023-06-14T04:04:06;49332.03;;;-149.77;32.99
60055;BME280;45930;53.514;55.904;2023-06-14T04:05:06;49318.16;;;-149.77;33.09
60055;BME280;45930;53.514;55.904;2023-06-14T04:06:09;49306.28;;;-149.77;32.90
60055;BME280;45930;53.514;55.904;2023-06-14T04:07:11;49306.28;;;-149.77;33.24
60055;BME280;45930;53.514;55.904;2023-06-14T04:08:12;49298.34;;;-149.77;33.31
60055;BME280;45930;53.514;55.904;2023-06-14T04:09:15;49286.47;;;-149.77;33.10
60055;BME280;45930;53.514;55.904;2023-06-14T04:10:16;49322.13;;;-149.77;33.24
60055;BME280;45930;53.514;55.904;2023-06-14T04:11:17;49304.28;;;-149.77;33.16
60055;BME280;45930;53.514;55.904;2023-06-14T04:12:18;49310.25;;;-149.77;33.18
60055;BME280;45930;53.514;55.904;2023-06-14T04:13:18;49294.41;;;-149.77;33.30
60055;BME280;45930;53.514;55.904;2023-06-14T04:14:19;49304.28;;;-149.77;32.76
60055;BME280;45930;53.514;55.904;2023-06-14T04:15:20;49306.28;;;-149.77;33.24
60055;BME280;45930;53.514;55.904;2023-06-14T04:16:21;49302.31;;;-149.77;33.04
60055;BME280;45930;53.514;55.904;2023-06-14T04:17:22;49334.00;;;-149.77;33.39
60055;BME280;45930;53.514;55.904;2023-06-14T04:18:23;49316.19;;;-149.77;33.24
60055;BME280;45930;53.514;55.904;2023-06-14T04:19:24;49318.16;;;-149.77;33.35
60055;BME280;45930;53.514;55.904;2023-06-14T04:20:25;49330.03;;;-149.77;33.30
60055;BME280;45930;53.514;55.904;2023-06-14T04:21:26;49322.13;;;-149.77;32.99
60055;BME280;45930;53.514;55.904;2023-06-14T04:22:29;49343.91;;;-149.77;32.68
60055;BME280;45930;53.514;55.904;2023-06-14T04:23:30;49294.41;;;-149.77;32.92
60055;BME280;45930;53.514;55.904;2023-06-14T04:24:31;49324.09;;;-149.77;33.14
60055;BME280;45930;53.514;55.904;2023-06-14T04:25:35;49341.94;;;-149.77;33.30
60055;BME280;45930;53.514;55.904;2023-06-14T04:26:36;49330.03;;;-149.77;33.31
60055;BME280;45930;53.514;55.904;2023-06-14T04:27:37;49343.91;;;-149.77;32.77
60055;BME280;45930;53.514;55.904;2023-06-14T04:28:38;49349.84;;;-149.77;32.47
60055;BME280;45930;53.514;55.904;2023-06-14T04:29:41;49349.84;;;-149.77;32.32
60055;BME280;45930;53.514;55.904;2023-06-14T04:30:44;49369.66;;;-149.77;32.48
60055;BME280;45930;53.514;55.904;2023-06-14T04:31:45;49320.16;;;-149.77;32.66
60055;BME280;45930;53.514;55.904;2023-06-14T04:32:46;49369.66;;;-149.77;32.42
60055;BME280;45930;53.514;55.904;2023-06-14T04:33:48;49341.94;;;-149.77;32.49
60055;BME280;45930;53.514;55.904;2023-06-14T04:34:51;49339.94;;;-149.77;32.74
60055;BME280;45930;53.514;55.904;2023-06-14T04:35:54;49351.84;;;-149.77;32.53
60055;BME280;45930;53.514;55.904;2023-06-14T04:36:56;49334.00;;;-149.77;32.95
60055;BME280;45930;53.514;55.904;2023-06-14T04:37:58;49341.94;;;-149.77;32.59
60055;BME280;45930;53.514;55.904;2023-06-14T04:39:00;49343.91;;;-149.77;32.52
60055;BME280;45930;53.514;55.904;2023-06-14T04:40:04;49359.75;;;-149.77;32.77
60055;BME280;45930;53.514;55.904;2023-06-14T04:41:07;49365.69;;;-149.77;32.60
60055;BME280;45930;53.514;55.904;2023-06-14T04:42:11;49351.84;;;-149.77;33.03
60055;BME280;45930;53.514;55.904;2023-06-14T04:43:13;49341.94;;;-149.77;33.22
60055;BME280;45930;53.514;55.904;2023-06-14T04:44:18;49336.00;;;-149.77;32.67
60055;BME280;45930;53.514;55.904;2023-06-14T04:45:20;49361.75;;;-149.77;32.62
60055;BME280;45930;53.514;55.904;2023-06-14T04:46:21;49349.84;;;-149.77;32.34
60055;BME280;45930;53.514;55.904;2023-06-14T04:47:23;49347.88;;;-149.77;32.42
60055;BME280;45930;53.514;55.904;2023-06-14T04:48:29;49336.00;;;-149.77;32.61
60055;BME280;45930;53.514;55.904;2023-06-14T04:49:31;49349.84;;;-149.77;32.78
60055;BME280;45930;53.514;55.904;2023-06-14T04:50:34;49341.94;;;-149.77;32.42
60055;BME280;45930;53.514;55.904;2023-06-14T04:51:35;49383.53;;;-149.77;32.16
60055;BME280;45930;53.514;55.904;2023-06-14T04:52:37;49349.84;;;-149.77;32.04
60055;BME280;45930;53.514;55.904;2023-06-14T04:53:38;49363.72;;;-149.77;32.52
60055;BME280;45930;53.514;55.904;2023-06-14T04:54:39;49343.91;;;-149.77;33.09
60055;BME280;45930;53.514;55.904;2023-06-14T04:55:43;49375.59;;;-149.77;32.57
60055;BME280;45930;53.514;55.904;2023-06-14T04:56:45;49341.94;;;-149.77;32.77
60055;BME280;45930;53.514;55.904;2023-06-14T04:57:47;49349.84;;;-149.77;32.32
60055;BME280;45930;53.514;55.904;2023-06-14T04:58:48;49355.78;;;-149.77;32.27
60055;BME280;45930;53.514;55.904;2023-06-14T04:59:48;49387.50;;;-149.77;32.39
60055;BME280;45930;53.514;55.904;2023-06-14T05:00:55;49355.78;;;-149.77;32.40
60055;BME280;45930;53.514;55.904;2023-06-14T05:01:56;49363.72;;;-149.77;31.88
60055;BME280;45930;53.514;55.904;2023-06-14T05:02:57;49381.56;;;-149.77;32.58
60055;BME280;45930;53.514;55.904;2023-06-14T05:03:58;49379.56;;;-149.77;32.35
60055;BME280;45930;53.514;55.904;2023-06-14T05:04:59;49363.72;;;-149.77;32.24
60055;BME280;45930;53.514;55.904;2023-06-14T05:06:02;49353.81;;;-149.77;32.19
60055;BME280;45930;53.514;55.904;2023-06-14T05:07:03;49377.59;;;-149.77;32.21
60055;BME280;45930;53.514;55.904;2023-06-14T05:08:04;49373.63;;;-149.77;32.21
60055;BME280;45930;53.514;55.904;2023-06-14T05:09:05;49369.66;;;-149.77;32.11
60055;BME280;45930;53.514;55.904;2023-06-14T05:10:06;49393.44;;;-149.77;32.03
60055;BME280;45930;53.514;55.904;2023-06-14T05:11:07;49357.78;;;-149.77;31.96
60055;BME280;45930;53.514;55.904;2023-06-14T05:12:07;49369.66;;;-149.77;32.14
60055;BME280;45930;53.514;55.904;2023-06-14T05:13:08;49389.47;;;-149.77;32.05
60055;BME280;45930;53.514;55.904;2023-06-14T05:14:11;49387.50;;;-149.77;32.27
60055;BME280;45930;53.514;55.904;2023-06-14T05:15:12;49369.66;;;-149.77;32.54
60055;BME280;45930;53.514;55.904;2023-06-14T05:16:13;49397.41;;;-149.77;32.48
60055;BME280;45930;53.514;55.904;2023-06-14T05:17:16;49373.63;;;-149.77;31.93
60055;BME280;45930;53.514;55.904;2023-06-14T05:18:17;49387.50;;;-149.77;32.06